createdAt,value
2023-03-29T00:02:39.161Z,100418.28
2023-03-29T00:05:15.361Z,100414.81
2023-03-29T00:07:48.749Z,100418.53
2023-03-29T00:10:19.115Z,100410.16
2023-03-29T00:12:54.666Z,100414.66
2023-03-29T00:15:26.362Z,100426.81
2023-03-29T00:17:55.087Z,100428.31
2023-03-29T00:20:33.480Z,100419.88
2023-03-29T00:23:44.912Z,100428.34
2023-03-29T00:26:15.841Z,100434.13
2023-03-29T00:28:47.354Z,100437.41
2023-03-29T00:31:19.507Z,100445.25
2023-03-29T00:33:51.428Z,100443.84
2023-03-29T00:36:25.315Z,100433.63
2023-03-29T00:38:59.294Z,100437.09
2023-03-29T00:41:33.494Z,100437.94
2023-03-29T00:44:07.134Z,100438.19
2023-03-29T00:46:37.416Z,100434.91
2023-03-29T00:49:15.000Z,100439.00
2023-03-29T00:51:47.064Z,100438.56
2023-03-29T00:54:21.928Z,100443.84
2023-03-29T00:56:54.399Z,100442.72
2023-03-29T00:59:33.427Z,100448.94
2023-03-29T01:02:10.954Z,100461.84
2023-03-29T01:04:52.915Z,100461.03
2023-03-29T01:07:36.757Z,100461.91
2023-03-29T01:10:25.134Z,100461.16
2023-03-29T01:13:08.660Z,100459.69
2023-03-29T01:15:45.080Z,100456.91
2023-03-29T01:18:15.647Z,100459.81
2023-03-29T01:21:04.024Z,100467.19
2023-03-29T01:23:54.841Z,100464.03
2023-03-29T01:26:41.370Z,100463.31
2023-03-29T01:29:19.509Z,100460.13
2023-03-29T01:32:00.721Z,100466.44
2023-03-29T01:34:39.327Z,100464.84
2023-03-29T01:37:27.523Z,100457.09
2023-03-29T01:40:06.568Z,100453.06
2023-03-29T01:43:05.290Z,100455.00
2023-03-29T01:45:43.377Z,100454.69
2023-03-29T01:48:35.004Z,100457.38
2023-03-29T01:51:17.363Z,100456.16
2023-03-29T01:54:13.015Z,100460.06
2023-03-29T01:56:50.662Z,100464.38
2023-03-29T02:00:27.217Z,100458.84
2023-03-29T02:03:31.318Z,100453.78
2023-03-29T02:06:37.973Z,100458.56
2023-03-29T02:09:19.731Z,100448.78
2023-03-29T02:11:53.592Z,100457.56
2023-03-29T02:14:25.845Z,100447.00
2023-03-29T02:16:55.943Z,100448.31
2023-03-29T02:19:34.314Z,100443.78
2023-03-29T02:22:10.978Z,100443.78
2023-03-29T02:24:49.374Z,100439.81
2023-03-29T02:27:18.999Z,100442.50
2023-03-29T02:29:50.301Z,100433.94
2023-03-29T02:32:31.006Z,100441.72
2023-03-29T02:35:22.737Z,100432.03
2023-03-29T02:38:00.750Z,100428.34
2023-03-29T02:40:35.400Z,100441.69
2023-03-29T02:43:10.808Z,100445.94
2023-03-29T02:45:42.557Z,100448.50
2023-03-29T02:48:16.795Z,100446.38
2023-03-29T02:50:50.552Z,100453.03
2023-03-29T02:53:29.787Z,100447.97
2023-03-29T02:56:05.617Z,100449.78
2023-03-29T02:58:38.653Z,100452.56
2023-03-29T03:01:11.273Z,100449.59
2023-03-29T03:03:42.398Z,100455.16
2023-03-29T03:06:11.234Z,100453.72
2023-03-29T03:08:41.757Z,100451.56
2023-03-29T03:11:11.582Z,100461.34
2023-03-29T03:13:47.112Z,100460.09
2023-03-29T03:16:21.013Z,100469.13
2023-03-29T03:18:52.156Z,100486.59
2023-03-29T03:21:25.127Z,100493.59
2023-03-29T03:23:56.790Z,100503.97
2023-03-29T03:26:33.062Z,100502.72
2023-03-29T03:29:03.773Z,100512.00
2023-03-29T03:32:01.487Z,100510.47
2023-03-29T03:34:54.624Z,100497.66
2023-03-29T03:37:33.316Z,100501.63
2023-03-29T03:40:05.050Z,100494.41
2023-03-29T03:42:34.956Z,100488.50
2023-03-29T03:45:06.302Z,100482.34
2023-03-29T03:47:52.932Z,100478.81
2023-03-29T03:50:34.832Z,100475.44
2023-03-29T03:53:07.737Z,100482.78
2023-03-29T03:56:10.339Z,100483.78
2023-03-29T03:59:01.452Z,100491.25
2023-03-29T04:01:44.035Z,100489.91
2023-03-29T04:04:22.623Z,100496.06
2023-03-29T04:07:18.112Z,100493.41
2023-03-29T04:10:34.547Z,100483.00
2023-03-29T04:13:18.806Z,100482.06
2023-03-29T04:16:29.556Z,100487.25
2023-03-29T04:19:08.784Z,100480.72
2023-03-29T04:21:39.486Z,100472.09
2023-03-29T04:24:10.551Z,100469.56
2023-03-29T04:26:43.172Z,100474.09
2023-03-29T04:29:32.686Z,100478.53
2023-03-29T04:32:15.154Z,100491.91
2023-03-29T04:34:51.391Z,100485.78
2023-03-29T04:37:25.175Z,100490.81
2023-03-29T04:40:02.065Z,100487.47
2023-03-29T04:42:39.200Z,100476.13
2023-03-29T04:45:10.468Z,100475.59
2023-03-29T04:48:03.315Z,100471.88
2023-03-29T04:50:37.480Z,100465.41
2023-03-29T04:53:10.419Z,100472.44
2023-03-29T04:55:40.965Z,100472.25
2023-03-29T04:58:14.897Z,100481.56
2023-03-29T05:00:45.196Z,100492.97
2023-03-29T05:03:26.623Z,100497.16
2023-03-29T05:06:08.859Z,100497.78
2023-03-29T05:08:42.106Z,100485.78
2023-03-29T05:11:37.314Z,100481.34
2023-03-29T05:14:10.157Z,100480.41
2023-03-29T05:16:43.030Z,100482.41
2023-03-29T05:19:14.266Z,100485.63
2023-03-29T05:21:51.503Z,100477.78
2023-03-29T05:24:27.006Z,100477.56
2023-03-29T05:27:10.693Z,100476.72
2023-03-29T05:29:41.327Z,100484.75
2023-03-29T05:32:41.512Z,100499.84
2023-03-29T05:35:13.381Z,100493.72
2023-03-29T05:37:43.408Z,100504.47
2023-03-29T05:40:14.100Z,100502.13
2023-03-29T05:43:03.524Z,100505.28
2023-03-29T05:45:34.605Z,100506.19
2023-03-29T05:48:10.555Z,100499.84
2023-03-29T05:50:47.407Z,100497.47
2023-03-29T05:53:19.457Z,100498.91
2023-03-29T05:55:50.925Z,100502.13
2023-03-29T05:58:22.223Z,100498.47
2023-03-29T06:00:53.142Z,100504.75
2023-03-29T06:03:43.104Z,100498.69
2023-03-29T06:06:17.926Z,100502.91
2023-03-29T06:08:49.909Z,100503.22
2023-03-29T06:11:41.420Z,100505.06
2023-03-29T06:14:41.737Z,100509.75
2023-03-29T06:17:35.282Z,100509.53
2023-03-29T06:20:11.441Z,100507.63
2023-03-29T06:22:48.825Z,100503.09
2023-03-29T06:25:21.295Z,100511.78
2023-03-29T06:27:54.525Z,100513.09
2023-03-29T06:30:23.690Z,100511.47
2023-03-29T06:33:03.378Z,100520.53
2023-03-29T06:35:57.698Z,100509.97
2023-03-29T06:38:33.201Z,100522.31
2023-03-29T06:41:20.708Z,100520.19
2023-03-29T06:44:13.533Z,100519.97
2023-03-29T06:47:05.847Z,100516.97
2023-03-29T06:49:35.582Z,100521.41
2023-03-29T06:52:41.626Z,100510.97
2023-03-29T06:55:13.814Z,100521.63
2023-03-29T06:57:43.645Z,100522.00
2023-03-29T07:00:30.459Z,100517.25
2023-03-29T07:03:33.985Z,100528.47
2023-03-29T07:06:13.550Z,100525.00
2023-03-29T07:08:50.158Z,100525.38
2023-03-29T07:11:34.639Z,100526.00
2023-03-29T07:14:16.990Z,100521.31
2023-03-29T07:16:47.839Z,100509.66
2023-03-29T07:19:23.277Z,100508.31
2023-03-29T07:22:01.719Z,100508.31
2023-03-29T07:24:51.563Z,100506.09
2023-03-29T07:27:24.819Z,100513.94
2023-03-29T07:29:55.205Z,100511.38
2023-03-29T07:32:37.448Z,100511.19
2023-03-29T07:35:27.356Z,100505.28
2023-03-29T07:38:07.551Z,100512.53
2023-03-29T07:40:41.996Z,100510.53
2023-03-29T07:43:33.024Z,100516.88
2023-03-29T07:46:06.868Z,100506.53
2023-03-29T07:48:41.549Z,100508.09
2023-03-29T07:51:13.677Z,100517.03
2023-03-29T07:53:46.594Z,100504.72
2023-03-29T07:56:35.272Z,100508.56
2023-03-29T07:59:26.335Z,100503.97
2023-03-29T08:02:11.308Z,100498.78
2023-03-29T08:04:49.045Z,100507.16
2023-03-29T08:07:26.486Z,100510.13
2023-03-29T08:10:14.687Z,100509.03
2023-03-29T08:13:10.897Z,100508.19
2023-03-29T08:16:10.200Z,100509.31
2023-03-29T08:18:49.212Z,100504.41
2023-03-29T08:21:21.577Z,100509.97
2023-03-29T08:23:53.334Z,100507.53
2023-03-29T08:26:42.643Z,100518.63
2023-03-29T08:29:13.708Z,100518.88
2023-03-29T08:31:45.458Z,100518.22
2023-03-29T08:34:15.049Z,100509.16
2023-03-29T08:36:49.254Z,100510.03
2023-03-29T08:39:42.776Z,100516.38
2023-03-29T08:42:51.498Z,100529.75
2023-03-29T08:45:50.806Z,100540.31
2023-03-29T08:48:31.270Z,100543.25
2023-03-29T08:51:14.049Z,100542.94
2023-03-29T08:53:53.664Z,100560.47
2023-03-29T08:56:46.890Z,100572.84
2023-03-29T08:59:41.238Z,100575.31
2023-03-29T09:02:23.506Z,100595.75
2023-03-29T09:05:19.196Z,100601.50
2023-03-29T09:08:18.697Z,100598.13
2023-03-29T09:11:01.452Z,100601.63
2023-03-29T09:13:41.032Z,100601.28
2023-03-29T09:16:39.633Z,100597.25
2023-03-29T09:19:42.225Z,100592.53
2023-03-29T09:22:21.416Z,100597.28
2023-03-29T09:25:27.830Z,100606.94
2023-03-29T09:28:05.594Z,100604.94
2023-03-29T09:30:55.115Z,100614.81
2023-03-29T09:33:38.451Z,100606.69
2023-03-29T09:36:26.717Z,100613.16
2023-03-29T09:39:01.489Z,100616.72
2023-03-29T09:41:54.396Z,100619.53
2023-03-29T09:44:31.134Z,100625.00
2023-03-29T09:47:24.993Z,100636.59
2023-03-29T09:50:01.738Z,100649.38
2023-03-29T09:52:33.077Z,100658.09
2023-03-29T09:55:19.126Z,100661.66
2023-03-29T09:58:03.617Z,100655.34
2023-03-29T10:00:42.914Z,100653.53
2023-03-29T10:03:25.053Z,100674.03
2023-03-29T10:06:06.570Z,100682.88
2023-03-29T10:08:57.893Z,100692.38
2023-03-29T10:11:59.244Z,100687.69
2023-03-29T10:14:36.095Z,100689.69
2023-03-29T10:17:17.316Z,100694.97
2023-03-29T10:19:57.377Z,100683.91
2023-03-29T10:22:38.726Z,100691.25
2023-03-29T10:25:19.024Z,100691.13
2023-03-29T10:27:49.590Z,100686.66
2023-03-29T10:30:26.839Z,100693.31
2023-03-29T10:33:01.412Z,100681.69
2023-03-29T10:35:43.295Z,100680.56
2023-03-29T10:38:17.678Z,100682.31
2023-03-29T10:40:55.385Z,100687.66
2023-03-29T10:43:44.047Z,100695.66
2023-03-29T10:46:28.057Z,100699.88
2023-03-29T10:49:10.837Z,100708.38
2023-03-29T10:55:07.137Z,100721.75
2023-03-29T10:57:43.392Z,100720.19
2023-03-29T11:00:22.907Z,100709.94
2023-03-29T11:03:26.816Z,100714.34
2023-03-29T11:06:09.209Z,100707.00
2023-03-29T11:08:54.947Z,100706.91
2023-03-29T11:11:45.387Z,100710.66
2023-03-29T11:14:43.374Z,100711.81
2023-03-29T11:17:35.804Z,100719.16
2023-03-29T11:20:25.329Z,100727.59
2023-03-29T11:23:01.603Z,100727.53
2023-03-29T11:25:55.242Z,100727.03
2023-03-29T11:28:39.471Z,100727.63
2023-03-29T11:31:30.021Z,100736.63
2023-03-29T11:34:27.558Z,100736.16
2023-03-29T11:37:25.271Z,100738.91
2023-03-29T11:40:23.593Z,100729.44
2023-03-29T11:42:57.776Z,100734.00
2023-03-29T11:45:43.170Z,100731.00
2023-03-29T11:48:23.061Z,100734.00
2023-03-29T11:51:51.336Z,100736.09
2023-03-29T11:54:34.243Z,100743.88
2023-03-29T11:57:43.182Z,100750.94
2023-03-29T12:00:22.293Z,100761.56
2023-03-29T12:02:54.620Z,100760.16
2023-03-29T12:05:34.254Z,100764.03
2023-03-29T12:08:27.138Z,100764.06
2023-03-29T12:11:31.798Z,100762.84
2023-03-29T12:14:41.203Z,100760.84
2023-03-29T12:17:20.787Z,100761.34
2023-03-29T12:20:14.500Z,100770.94
2023-03-29T12:22:49.973Z,100774.44
2023-03-29T12:29:38.351Z,100768.97
2023-03-29T12:32:27.407Z,100761.56
2023-03-29T12:35:26.406Z,100755.72
2023-03-29T12:38:16.856Z,100755.84
2023-03-29T12:41:19.569Z,100747.63
2023-03-29T12:44:43.072Z,100739.47
2023-03-29T12:47:27.125Z,100739.13
2023-03-29T12:50:01.397Z,100728.13
2023-03-29T12:52:38.041Z,100710.69
2023-03-29T12:55:30.023Z,100721.97
2023-03-29T12:58:12.996Z,100710.09
2023-03-29T13:00:42.881Z,100707.16
2023-03-29T13:03:46.956Z,100713.06
2023-03-29T13:06:47.288Z,100717.66
2023-03-29T13:09:31.584Z,100717.31
2023-03-29T13:12:12.042Z,100711.50
2023-03-29T13:14:45.977Z,100711.69
2023-03-29T13:17:33.117Z,100706.47
2023-03-29T13:20:05.018Z,100705.59
2023-03-29T13:23:07.757Z,100713.09
2023-03-29T13:25:51.954Z,100718.00
2023-03-29T13:28:30.222Z,100719.88
2023-03-29T13:31:09.085Z,100726.34
2023-03-29T13:33:43.651Z,100727.31
2023-03-29T13:36:37.374Z,100733.19
2023-03-29T13:39:30.632Z,100732.88
2023-03-29T13:42:21.004Z,100735.28
2023-03-29T13:44:51.090Z,100727.03
2023-03-29T13:47:20.907Z,100731.94
2023-03-29T13:50:02.676Z,100730.13
2023-03-29T13:52:53.905Z,100731.41
2023-03-29T13:55:38.790Z,100721.81
2023-03-29T13:58:34.956Z,100729.03
2023-03-29T14:02:13.859Z,100724.41
2023-03-29T14:04:50.184Z,100719.03
2023-03-29T14:07:33.917Z,100717.28
2023-03-29T14:10:05.002Z,100719.75
2023-03-29T14:12:43.134Z,100721.56
2023-03-29T14:15:28.031Z,100722.25
2023-03-29T14:18:03.618Z,100721.66
2023-03-29T14:20:35.666Z,100717.03
2023-03-29T14:23:16.129Z,100716.44
2023-03-29T14:25:50.845Z,100712.69
2023-03-29T14:28:45.873Z,100710.09
2023-03-29T14:31:23.114Z,100718.88
2023-03-29T14:33:57.049Z,100722.00
2023-03-29T14:36:35.630Z,100711.47
2023-03-29T14:39:24.063Z,100717.06
2023-03-29T14:42:17.612Z,100713.06
2023-03-29T14:44:50.511Z,100710.47
2023-03-29T14:47:31.464Z,100695.84
2023-03-29T14:50:05.913Z,100697.84
2023-03-29T14:52:38.293Z,100691.47
2023-03-29T14:55:10.700Z,100694.16
2023-03-29T14:58:03.270Z,100706.84
2023-03-29T15:00:50.913Z,100698.97
2023-03-29T15:03:23.232Z,100701.47
2023-03-29T15:05:59.276Z,100692.13
2023-03-29T15:08:38.564Z,100701.25
2023-03-29T15:11:33.473Z,100700.22
2023-03-29T15:14:21.217Z,100706.66
2023-03-29T15:16:50.872Z,100705.28
2023-03-29T15:20:08.541Z,100692.34
2023-03-29T15:22:23.609Z,100692.38
2023-03-29T15:24:54.840Z,100690.88
2023-03-29T15:27:23.946Z,100680.88
2023-03-29T15:30:03.329Z,100684.63
2023-03-29T15:32:48.123Z,100685.47
2023-03-29T15:41:49.936Z,100674.44
2023-03-29T15:44:27.171Z,100684.25
2023-03-29T15:47:31.926Z,100689.66
2023-03-29T15:50:07.996Z,100680.31
2023-03-29T15:53:34.686Z,100676.03
2023-03-29T15:57:07.564Z,100669.03
2023-03-29T16:00:02.132Z,100666.16
2023-03-29T16:04:46.009Z,100661.84
2023-03-29T16:13:41.266Z,100658.88
2023-03-29T16:17:16.835Z,100656.00
2023-03-29T16:20:06.376Z,100648.72
2023-03-29T16:22:35.274Z,100642.31
2023-03-29T16:25:19.400Z,100647.13
2023-03-29T16:28:22.097Z,100626.13
2023-03-29T16:30:52.117Z,100615.56
2023-03-29T16:34:43.157Z,100611.09
2023-03-29T16:41:55.784Z,100591.09
2023-03-29T16:50:04.303Z,100573.00
2023-03-29T16:54:18.466Z,100575.28
2023-03-29T17:01:41.940Z,100564.69
2023-03-29T17:04:22.804Z,100555.34
2023-03-29T17:06:54.275Z,100557.44
2023-03-29T17:09:31.354Z,100559.50
2023-03-29T17:12:38.747Z,100556.06
2023-03-29T17:16:25.884Z,100541.59
2023-03-29T17:22:13.668Z,100531.81
2023-03-29T17:24:53.268Z,100521.94
2023-03-29T17:27:25.446Z,100514.44
2023-03-29T17:29:57.736Z,100512.38
2023-03-29T17:32:37.115Z,100526.63
2023-03-29T17:35:20.741Z,100522.34
2023-03-29T17:37:57.006Z,100525.66
2023-03-29T17:40:35.354Z,100514.31
2023-03-29T17:43:06.191Z,100520.09
2023-03-29T17:45:40.281Z,100519.91
2023-03-29T17:48:10.213Z,100505.88
2023-03-29T17:50:43.415Z,100499.47
2023-03-29T17:53:15.507Z,100505.88
2023-03-29T17:55:46.448Z,100495.25
2023-03-29T17:58:19.373Z,100490.03
2023-03-29T18:00:54.241Z,100484.53
2023-03-29T18:03:31.392Z,100481.34
2023-03-29T18:06:08.992Z,100483.03
2023-03-29T18:08:43.527Z,100481.69
2023-03-29T18:11:46.520Z,100475.75
2023-03-29T18:14:15.431Z,100468.63
2023-03-29T18:16:48.643Z,100460.72
2023-03-29T18:19:21.587Z,100453.75
2023-03-29T18:21:52.385Z,100446.06
2023-03-29T18:24:23.876Z,100441.06
2023-03-29T18:26:56.914Z,100450.69
2023-03-29T18:29:33.037Z,100442.03
2023-03-29T18:32:06.922Z,100434.75
2023-03-29T18:34:36.354Z,100431.59
2023-03-29T18:38:12.447Z,100424.13
2023-03-29T18:41:19.425Z,100415.81
2023-03-29T18:43:51.409Z,100404.03
2023-03-29T18:49:34.347Z,100406.25
2023-03-29T18:52:54.666Z,100394.66
2023-03-29T18:55:33.891Z,100380.06
2023-03-29T19:08:47.893Z,100355.97
2023-03-29T19:16:46.458Z,100354.75
2023-03-29T19:26:19.311Z,100350.69
2023-03-29T19:28:49.081Z,100344.69
2023-03-29T19:31:22.288Z,100350.41
2023-03-29T19:33:51.515Z,100353.59
2023-03-29T19:36:22.854Z,100338.66
2023-03-29T19:38:57.253Z,100349.50
2023-03-29T19:41:35.743Z,100346.53
2023-03-29T19:44:11.277Z,100323.81
2023-03-29T19:47:54.314Z,100324.44
2023-03-29T19:50:25.627Z,100325.22
2023-03-29T19:52:59.135Z,100318.38
2023-03-29T19:55:27.831Z,100312.94
2023-03-29T19:57:57.712Z,100302.78
2023-03-29T20:00:27.938Z,100295.50
2023-03-29T20:02:57.939Z,100294.75
2023-03-29T20:05:27.551Z,100293.91
2023-03-29T20:07:57.907Z,100289.31
2023-03-29T20:10:27.768Z,100293.50
2023-03-29T20:12:57.823Z,100290.31
2023-03-29T20:15:28.928Z,100282.69
2023-03-29T20:18:01.461Z,100275.59
2023-03-29T20:24:15.573Z,100280.16
2023-03-29T20:26:45.168Z,100282.16
2023-03-29T20:29:15.803Z,100271.38
2023-03-29T20:31:46.561Z,100268.53
2023-03-29T20:34:15.284Z,100267.22
2023-03-29T20:36:45.029Z,100264.88
2023-03-29T20:39:14.437Z,100252.63
2023-03-29T20:41:48.438Z,100248.16
2023-03-29T20:44:19.080Z,100248.31
2023-03-29T20:46:54.829Z,100239.44
2023-03-29T20:49:27.136Z,100234.63
2023-03-29T20:55:24.407Z,100238.03
2023-03-29T20:57:55.270Z,100230.59
2023-03-29T21:00:26.244Z,100229.38
2023-03-29T21:02:57.659Z,100225.16
2023-03-29T21:05:33.300Z,100226.22
2023-03-29T21:08:03.413Z,100226.00
2023-03-29T21:10:33.878Z,100221.44
2023-03-29T21:17:10.866Z,100222.66
2023-03-29T21:20:15.824Z,100200.91
2023-03-29T21:22:45.554Z,100184.47
2023-03-29T21:25:17.215Z,100182.41
2023-03-29T21:27:47.102Z,100186.28
2023-03-29T21:30:15.905Z,100190.66
2023-03-29T21:32:50.187Z,100189.38
2023-03-29T21:35:20.074Z,100189.75
2023-03-29T21:37:49.571Z,100198.00
2023-03-29T21:40:21.101Z,100200.09
2023-03-29T21:43:07.644Z,100199.94
2023-03-29T21:45:38.439Z,100196.59
2023-03-29T21:48:08.033Z,100202.22
2023-03-29T21:50:37.243Z,100199.19
2023-03-29T21:53:05.568Z,100187.88
2023-03-29T21:55:38.921Z,100182.19
2023-03-29T21:58:08.488Z,100179.34
2023-03-29T22:00:37.559Z,100179.41
2023-03-29T22:03:06.758Z,100180.97
2023-03-29T22:05:35.581Z,100173.75
2023-03-29T22:08:10.794Z,100181.09
2023-03-29T22:10:42.901Z,100178.41
2023-03-29T22:13:11.462Z,100177.72
2023-03-29T22:15:48.389Z,100185.06
2023-03-29T22:18:17.394Z,100176.91
2023-03-29T22:20:46.461Z,100168.53
2023-03-29T22:23:15.912Z,100167.00
2023-03-29T22:25:45.375Z,100162.81
2023-03-29T22:28:14.622Z,100155.66
2023-03-29T22:30:43.462Z,100160.19
2023-03-29T22:33:13.095Z,100164.91
2023-03-29T22:35:42.453Z,100148.13
2023-03-29T22:38:11.175Z,100157.88
2023-03-29T22:40:42.777Z,100153.75
2023-03-29T22:43:11.601Z,100152.09
2023-03-29T22:45:41.812Z,100157.88
2023-03-29T22:48:11.441Z,100151.63
2023-03-29T22:50:43.345Z,100145.53
2023-03-29T22:53:12.319Z,100142.00
2023-03-29T22:55:43.019Z,100149.28
2023-03-29T22:58:11.340Z,100158.84
2023-03-29T23:00:41.557Z,100157.44
2023-03-29T23:03:10.999Z,100149.41
2023-03-29T23:05:39.512Z,100147.31
2023-03-29T23:08:13.991Z,100154.72
2023-03-29T23:10:55.105Z,100154.38
2023-03-29T23:13:37.252Z,100155.84
2023-03-29T23:16:17.014Z,100158.56
2023-03-29T23:18:47.927Z,100162.72
2023-03-29T23:21:22.736Z,100162.72
2023-03-29T23:23:54.315Z,100165.25
2023-03-29T23:26:24.416Z,100174.47
2023-03-29T23:32:45.186Z,100168.66
2023-03-29T23:35:17.570Z,100173.69
2023-03-29T23:37:46.708Z,100164.53
2023-03-29T23:40:17.732Z,100160.44
2023-03-29T23:42:49.475Z,100164.28
2023-03-29T23:45:33.466Z,100168.72
2023-03-29T23:48:03.513Z,100167.91
2023-03-29T23:50:37.072Z,100166.91
2023-03-29T23:53:31.380Z,100166.13
2023-03-29T23:56:18.392Z,100173.69
2023-03-29T23:58:47.440Z,100172.38
